General Aviation Weather

Text Reports

Enter one or more of the following location identifiers separated by a space:

Zip Code, Four-Character ICAO or Three-Character IATA airport codes.

METAR - Aviation Routine Weather Report
K4A9 - Fort Payne, Alabama
Updated at 1:35 AM GMT on March 03, 2015 (7:35 PM CST):
METAR K4A9 030135Z AUTO 00000KT 10SM OVC026 10/06 A3028 RMK AO2
TAF - Terminal Area Forecast
K4A9 - Fort Payne, Alabama
Updated at 1:35 AM GMT on March 03, 2015 (7:35 PM CST):
No TAF is currently available for this location.
Decoded:
No decoded TAF is available.
PIREP - Pilot Weather Report
K4A9 - Fort Payne, Alabama
Updated at 1:35 AM GMT on March 03, 2015 (7:35 PM CST):
No PIREP is currently available for this location.
AIRMET - Airmens Meteorological Information
K4A9 - Fort Payne, Alabama
Updated at 1:35 AM GMT on March 03, 2015 (7:35 PM CST):
No AIRMET is currently available for this location.
SIGMET - Significant Meteorological Information
K4A9 - Fort Payne, Alabama
Updated at 1:35 AM GMT on March 03, 2015 (7:35 PM CST):
No SIGMET is currently available for this location.
NOTAM - Notice to Airmen
K4A9 - Fort Payne, Alabama
Updated at 1:35 AM GMT on March 03, 2015 (7:35 PM CST):
No NOTAM is currently available for this location.
Forecast Area
K4A9 - Fort Payne, Alabama
Updated at 1:35 AM GMT on March 03, 2015 (7:35 PM CST):
No NOTAM is currently available for this location.
Aviation Weather Maps